Aviation Digital Data Service (ADDS)

Output produced by METARs form (1416 UTC 08 May 2021)
found at http://aviationweather.gov/metar/data/
 
KHUM 081120Z 0812/0912 00000KT P6SM FEW250 
     FM081800 16010KT P6SM FEW250 
     FM090900 18007KT P6SM SCT020